This is the latest recevied weather packets stored in our database for station/object DC1MAK-13. If no packets are shown the sender has not sent any weather packets the latest 10 day(s).
| Time | Temp. | Humidity | Pressure | Rain* | Wind** | Luminosity | Snow |
|---|---|---|---|---|---|---|---|
| 1777509999 | 6.67° C | 43% | 993.5 hPa | - | - | - | - |
| 1777509390 | 7.22° C | 42% | 993.5 hPa | - | - | - | - |
| 1777509086 | 7.22° C | 42% | 993.6 hPa | - | - | - | - |
| 1777507872 | 7.22° C | 41% | 993.6 hPa | - | - | - | - |
| 1777507568 | 7.22° C | 41% | 993.6 hPa | - | - | - | - |
| 1777506359 | 7.78° C | 40% | 993.4 hPa | - | - | - | - |
| 1777505746 | 7.78° C | 40% | 993.4 hPa | - | - | - | - |
| 1777505443 | 8.33° C | 39% | 993.4 hPa | - | - | - | - |
| 1777501499 | 9.44° C | 39% | 993 hPa | - | - | - | - |
| 1777498764 | 10.56° C | 37% | 992.6 hPa | - | - | - | - |
| 1777498159 | 10.56° C | 37% | 992.5 hPa | - | - | - | - |
| 1777497853 | 10.56° C | 37% | 992.4 hPa | - | - | - | - |
| 1777497246 | 10.56° C | 37% | 992.4 hPa | - | - | - | - |
| 1777496639 | 10.56° C | 36% | 992.3 hPa | - | - | - | - |
| 1777496339 | 11.11° C | 36% | 992.3 hPa | - | - | - | - |
| 1777496031 | 11.11° C | 36% | 992.3 hPa | - | - | - | - |
| 1777494819 | 11.11° C | 36% | 992.2 hPa | - | - | - | - |
| 1777494209 | 11.11° C | 37% | 992.1 hPa | - | - | - | - |
| 1777493906 | 10.56° C | 38% | 992 hPa | - | - | - | - |
| 1777492999 | 10.56° C | 40% | 992 hPa | - | - | - | - |
| 1777491479 | 11.11° C | 39% | 991.8 hPa | - | - | - | - |
| 1777491179 | 11.11° C | 41% | 991.8 hPa | - | - | - | - |
| 1777490870 | 11.11° C | 41% | 991.7 hPa | - | - | - | - |
| 1777490566 | 11.67° C | 39% | 991.6 hPa | - | - | - | - |
| 1777490263 | 11.67° C | 37% | 991.6 hPa | - | - | - | - |
* Rain since midnight (hover to see other rain measurements)
** Current wind speed in m/s (hover to see current wind gust speed)